Strona główna
METAR-TAF:

METAR-TAF

Lotnisko :

Katowice, Polska

Port lotniczy Katowice-Pyrzowice

Szerokość geograficzna: 50-28-27N, Długość geograficzna: 019-04-48E, wysokość: 284 m

Aktualna obserwacja pogody

Raport powstał 34 minut temu, godzina 14:00 UTC
Wiatr 17 kt od południowy zachód
Temperatura 6°C
Wilgotność 42%
Ciśnienie 1013 hPa
Widzialność 10 km lub więcej
Przerywane chmury na wysokości 4100 ft

METAR: EPKT 261400Z 22017KT 9999 BKN041 06/M06 Q1013

czas: 15:34 (14:34 UTC)

Prognoza

Raport powstał 3 godziny i 4 minut temu, godzina 11:30 UTC
Prognoza ważna od 26 godzina 12 UTC do 27 godzina 12 UTC
Wiatr 20 kt od południowy zachód
Widzialność 10 km lub więcej
Brak chmur poniżej 1500 m i brak chmur cumulonimbus
Przejściowo
od 26 godzina 12 UTC do 26 godzina 16 UTC
Wiatr 22 kt od południowy zachód w porywach dochodzący do 34 kt
Stopniowe zmiany
od 26 godzina 17 UTC do 26 godzina 20 UTC
Wiatr 10 kt od południowo-południowy zachód

TAF: EPKT 261130Z 2612/2712 23020KT CAVOK TEMPO 2612/2616 23022G34KT BECMG 2617/2620 21010KT

Obserwacja i prognoza pogody dla ponad 4000 lotnisk (raport METAR i TAF).

Dostępne stacje oznaczono żółtymi i czerwonymi punktami na mapie.

Najedź kursorem aby zobaczyć nazwę stacji.

Kliknij aby zobaczyć obserwacje i prognozy pogody.

Aby zmienić mapę: kliknij na zielony przycisk z czarnym krzyżykiem, aby powiększyć; na zielony przycisk z myślnikiem, aby pomniejszyć; na zielone strzałki, aby przejść do map sąsiednich.


METAR-TAF: